Tombarra — MPRD6 — position and weather

sailwx.info

Track history (hours):
 
Tides and Currents Weather Stations Pressure Air Temp Water Temp Dewpoint Dewpoint Depression Visibility Wind Speed Wind Dir Waves Ship Positions

Tombarra

Last reported at 2015-Feb-14 00:29 UTC. Time now 2015-Feb-28 12:31 UTC.
Position N 50°25' W 001°19'.
Warning: this ship's position is 14 days out of date.

Length 199 m; draft 10.3 m.

Type: Ship. MMSI: 232971000.

Date/timePositionNaut miles runAvg speedWind from/ knotsBaromVisibWave heightAir tempDewpointWater temp
2015-Feb-14 00:29N 50°25' W 001°19'1313.8
2015-Feb-13 23:33N 50°31' W 001°02'1110.6
2015-Feb-13 22:33N 50°41' W 000°57'1312.7
2015-Feb-13 21:33N 50°46' W 001°15'9 8.9
2015-Feb-13 20:33N 50°53' W 001°24'0 0.4
2015-Feb-13 19:33N 50°53' W 001°24'0 0.0
2015-Feb-13 18:33N 50°53' W 001°24'0 0.0
2015-Feb-13 17:33N 50°53' W 001°24'0 0.0
2015-Feb-13 16:33N 50°53' W 001°24'0 0.0
2015-Feb-13 15:33N 50°53' W 001°24'0 0.0
2015-Feb-13 14:33N 50°53' W 001°24'0 0.0
2015-Feb-13 13:33N 50°53' W 001°24'0 0.0
2015-Feb-13 12:33N 50°53' W 001°24'0 0.0
2015-Feb-13 11:33N 50°53' W 001°24'0 0.0
2015-Feb-13 10:33N 50°53' W 001°24'0 0.0
2015-Feb-13 09:33N 50°53' W 001°24'0 0.0
2015-Feb-13 08:33N 50°53' W 001°24'0 0.0
2015-Feb-13 07:33N 50°53' W 001°24'6 5.5
2015-Feb-13 06:33N 50°49' W 001°18'1212.1
2015-Feb-13 05:34N 50°43' W 001°01'9 8.5
2015-Feb-13 04:33N 50°37' W 000°53'1110.6
2015-Feb-13 03:33N 50°27' W 000°46'4715.5
2015-Feb-13 00:33N 49°45' W 000°15'1515.2
2015-Feb-12 23:33N 49°32' W 000°04'10 9.9
2015-Feb-12 22:33N 49°28' E 000°10'1 0.8
2015-Feb-12 21:33N 49°29' E 000°11'1 0.8
2015-Feb-12 20:31N 49°28' E 000°13'0 0.0
2015-Feb-12 19:31N 49°28' E 000°13'0 0.0
2015-Feb-12 18:31N 49°28' E 000°13'0 0.0
2015-Feb-12 17:31N 49°28' E 000°13'0 0.0
2015-Feb-12 16:32N 49°28' E 000°13'0 0.0
2015-Feb-12 15:31N 49°28' E 000°13'1 1.4
2015-Feb-12 14:33N 49°29' E 000°11'0 0.3
2015-Feb-12 13:33N 49°28' E 000°10'8 7.7
2015-Feb-12 12:33N 49°30' W 000°01'9 8.5
2015-Feb-12 11:33N 49°33' W 000°14'1010.4
2015-Feb-12 10:33N 49°42' W 000°21'4117.0
2015-Feb-12 08:08N 50°23' W 000°24'1219.0
2015-Feb-12 07:29N 50°27' W 000°06'1818.9
2015-Feb-12 06:33N 50°33' E 000°21'1818.2
2015-Feb-12 05:33N 50°42' E 000°46'1817.3
2015-Feb-12 04:32N 50°51' E 001°10'1616.3
2015-Feb-12 03:34N 51°02' E 001°28'1717.4
2015-Feb-12 02:33N 51°14' E 001°47'1514.9
2015-Feb-12 01:34N 51°23' E 002°07'1717.2
2015-Feb-12 00:33N 51°23' E 002°34'1514.7
2015-Feb-11 23:34N 51°23' E 002°58'1010.0
2015-Feb-11 22:33N 51°20' E 003°13'0 0.1
2015-Feb-11 21:32N 51°20' E 003°13'1 1.2
2015-Feb-11 20:31N 51°19' E 003°14'0 0.0
2015-Feb-11 19:31N 51°19' E 003°14'0 0.0
2015-Feb-11 18:31N 51°19' E 003°14'0 0.0
2015-Feb-11 17:28N 51°19' E 003°14'0 0.0
2015-Feb-11 16:31N 51°19' E 003°14'0 0.0
2015-Feb-11 15:31N 51°19' E 003°14'0 0.0
2015-Feb-11 14:31N 51°19' E 003°14'0 0.0
2015-Feb-11 13:31N 51°19' E 003°14'0 0.0
2015-Feb-11 12:31N 51°19' E 003°14'0 0.0
2015-Feb-11 11:31N 51°19' E 003°14'0 0.0
2015-Feb-11 10:31N 51°19' E 003°14'0 0.0
2015-Feb-11 09:31N 51°19' E 003°14'0 0.0
2015-Feb-11 08:31N 51°19' E 003°14'0 0.0
2015-Feb-11 07:31N 51°19' E 003°14'0 0.0
2015-Feb-11 06:31N 51°19' E 003°14'0 0.0
2015-Feb-11 05:31N 51°19' E 003°14'0 0.0
2015-Feb-11 04:28N 51°19' E 003°14'0 0.0
2015-Feb-11 03:28N 51°19' E 003°14'0 0.0
2015-Feb-11 02:25N 51°19' E 003°14'0 0.0
2015-Feb-11 01:31N 51°19' E 003°14'0 0.0
2015-Feb-11 00:31N 51°19' E 003°14'0 0.0
2015-Feb-10 23:31N 51°19' E 003°14'0 0.0
2015-Feb-10 22:32N 51°19' E 003°14'1 1.3
2015-Feb-10 21:31N 51°20' E 003°13'2 2.0
2015-Feb-10 20:33N 51°22' E 003°11'9 9.0
2015-Feb-10 19:33N 51°23' E 002°57'17 8.4
2015-Feb-10 17:33N 51°37' E 002°43'1615.6
2015-Feb-10 16:33N 51°53' E 002°41'1414.5
2015-Feb-10 15:34N 52°05' E 002°53'1615.7
2015-Feb-10 14:33N 52°18' E 003°07'1716.5
2015-Feb-10 13:33N 52°32' E 003°24'1717.0
2015-Feb-10 12:34N 52°45' E 003°41'1817.5
2015-Feb-10 11:33N 52°58' E 004°01'1717.1
2015-Feb-10 10:32N 53°09' E 004°23'1616.3
2015-Feb-10 09:34N 53°24' E 004°34'1616.1
2015-Feb-10 08:34N 53°33' E 004°56'1716.7
2015-Feb-10 07:34N 53°39' E 005°22'1717.3
2015-Feb-10 06:34N 53°44' E 005°50'1817.6
2015-Feb-10 05:33N 53°50' E 006°18'2517.5
2015-Feb-10 04:08N 53°55' E 006°59'1017.5
2015-Feb-10 03:33N 53°57' E 007°17'1514.9
2015-Feb-10 02:31N 53°56' E 007°43'1111.6
2015-Feb-10 01:33N 53°51' E 007°60'1413.7
2015-Feb-10 00:33N 53°43' E 008°18'1211.6
2015-Feb-09 23:33N 53°35' E 008°32'1 0.9
2015-Feb-09 22:33N 53°34' E 008°33'0 0.4
2015-Feb-09 21:32N 53°35' E 008°33'0 0.0
2015-Feb-09 20:32N 53°35' E 008°33'0 0.0
2015-Feb-09 19:32N 53°35' E 008°33'0 0.0
2015-Feb-09 18:32N 53°35' E 008°33'0 0.0
2015-Feb-09 17:32N 53°35' E 008°33'0 0.0
2015-Feb-09 16:32N 53°35' E 008°33'0 0.0
2015-Feb-09 15:32N 53°35' E 008°33'0 0.0
2015-Feb-09 14:32N 53°35' E 008°33'0 0.0
2015-Feb-09 13:32N 53°35' E 008°33'0 0.0
2015-Feb-09 12:32N 53°35' E 008°33'0 0.0
2015-Feb-09 11:32N 53°35' E 008°33'0 0.0
2015-Feb-09 10:32N 53°35' E 008°33'0 0.0
2015-Feb-09 09:32N 53°35' E 008°33'0 0.0
2015-Feb-09 08:32N 53°35' E 008°33'0 0.0
2015-Feb-09 07:32N 53°35' E 008°33'0 0.0
2015-Feb-09 06:32N 53°35' E 008°33'0 0.0
2015-Feb-09 05:32N 53°35' E 008°33'0 0.0
2015-Feb-09 04:32N 53°35' E 008°33'0 0.0
2015-Feb-09 03:32N 53°35' E 008°33'0 0.0
2015-Feb-09 02:29N 53°35' E 008°33'0 0.0
2015-Feb-09 01:32N 53°35' E 008°33'0 0.0
2015-Feb-09 00:32N 53°35' E 008°33'0 0.0
2015-Feb-08 23:32N 53°35' E 008°33'0 0.0
2015-Feb-08 22:32N 53°35' E 008°33'0 0.0
2015-Feb-08 21:34N 53°35' E 008°33'0 0.0
2015-Feb-08 20:33N 53°35' E 008°33'0 0.0
2015-Feb-08 19:33N 53°35' E 008°33'0 0.0
2015-Feb-08 18:34N 53°35' E 008°33'0 0.0
2015-Feb-08 17:33N 53°35' E 008°33'0 0.0
2015-Feb-08 16:33N 53°35' E 008°33'0 0.0
2015-Feb-08 15:33N 53°35' E 008°33'0 0.0
2015-Feb-08 14:33N 53°35' E 008°33'0 0.0
2015-Feb-08 13:33N 53°35' E 008°33'0 0.0
2015-Feb-08 12:33N 53°35' E 008°33'0 0.0
2015-Feb-08 11:33N 53°35' E 008°33'0 0.0
2015-Feb-08 10:33N 53°35' E 008°33'0 0.0
2015-Feb-08 09:33N 53°35' E 008°33'1 0.8
2015-Feb-08 08:31N 53°34' E 008°34'0 0.0
2015-Feb-08 07:31N 53°34' E 008°34'0 0.0
2015-Feb-08 06:31N 53°34' E 008°34'0 0.0
2015-Feb-08 05:31N 53°34' E 008°34'0 0.0
2015-Feb-08 04:31N 53°34' E 008°34'0 0.0
2015-Feb-08 03:31N 53°34' E 008°34'0 0.0
2015-Feb-08 02:31N 53°34' E 008°34'0 0.0
2015-Feb-08 01:31N 53°34' E 008°34'0 0.0
2015-Feb-08 00:31N 53°34' E 008°34'0 0.0
2015-Feb-07 23:31N 53°34' E 008°34'0 0.0
2015-Feb-07 22:31N 53°34' E 008°34'0 0.0
2015-Feb-07 21:31N 53°34' E 008°34'0 0.0
2015-Feb-07 20:31N 53°34' E 008°34'0 0.0
2015-Feb-07 19:28N 53°34' E 008°34'0 0.0
2015-Feb-07 18:31N 53°34' E 008°34'0 0.0
2015-Feb-07 17:31N 53°34' E 008°34'0 0.0
2015-Feb-07 16:31N 53°34' E 008°34'0 0.0
2015-Feb-07 15:31N 53°34' E 008°34'0 0.0
2015-Feb-07 14:31N 53°34' E 008°34'0 0.0
2015-Feb-07 13:28N 53°34' E 008°34'0 0.0
2015-Feb-07 12:31N 53°34' E 008°34'0 0.0
2015-Feb-07 11:28N 53°34' E 008°34'0 0.0
2015-Feb-07 10:28N 53°34' E 008°34'0 0.0
2015-Feb-07 09:28N 53°34' E 008°34'0 0.0
2015-Feb-07 08:31N 53°34' E 008°34'0 0.0
2015-Feb-07 07:31N 53°34' E 008°34'0 0.0
2015-Feb-07 06:31N 53°34' E 008°34'0 0.0
2015-Feb-07 05:31N 53°34' E 008°34'0 0.0
2015-Feb-07 04:31N 53°34' E 008°34'0 0.0
2015-Feb-07 03:31N 53°34' E 008°34'0 0.0
2015-Feb-07 02:32N 53°34' E 008°34'0 0.0
2015-Feb-07 01:31N 53°34' E 008°34'0 0.0
2015-Feb-07 00:31N 53°34' E 008°34'0 0.0
2015-Feb-06 23:31N 53°34' E 008°34'0 0.0
2015-Feb-06 22:31N 53°34' E 008°34'0 0.0
2015-Feb-06 21:31N 53°34' E 008°34'0 0.0
2015-Feb-06 20:31N 53°34' E 008°34'0 0.0
2015-Feb-06 19:31N 53°34' E 008°34'0 0.0
2015-Feb-06 18:31N 53°34' E 008°34'0 0.0
2015-Feb-06 17:31N 53°34' E 008°34'0 0.0
2015-Feb-06 16:31N 53°34' E 008°34'0 0.0
2015-Feb-06 15:31N 53°34' E 008°34'0 0.0
2015-Feb-06 14:31N 53°34' E 008°34'0 0.0
2015-Feb-06 13:31N 53°34' E 008°34'0 0.0
2015-Feb-06 12:31N 53°34' E 008°34'0 0.0
2015-Feb-06 11:31N 53°34' E 008°34'0 0.0
2015-Feb-06 10:31N 53°34' E 008°34'0 0.0
2015-Feb-06 09:31N 53°34' E 008°34'0 0.0
2015-Feb-06 08:31N 53°34' E 008°34'0 0.0
2015-Feb-06 07:31N 53°34' E 008°34'0 0.0
2015-Feb-06 06:31N 53°34' E 008°34'0 0.0
2015-Feb-06 05:31N 53°34' E 008°34'0 0.0
2015-Feb-06 04:31N 53°34' E 008°34'0 0.0
2015-Feb-06 03:31N 53°34' E 008°34'0 0.0
2015-Feb-06 02:31N 53°34' E 008°34'0 0.0
2015-Feb-06 01:31N 53°34' E 008°34'0 0.0
2015-Feb-06 00:31N 53°34' E 008°34'0 0.0
2015-Feb-05 23:31N 53°34' E 008°34'0 0.0
2015-Feb-05 22:31N 53°34' E 008°34'0 0.0
2015-Feb-05 21:31N 53°34' E 008°34'0 0.0
2015-Feb-05 20:31N 53°34' E 008°34'0 0.0
2015-Feb-05 19:31N 53°34' E 008°34'0 0.0
2015-Feb-05 18:31N 53°34' E 008°34'0 0.0
2015-Feb-05 17:31N 53°34' E 008°34'0 0.0
2015-Feb-05 16:31N 53°34' E 008°34'0 0.0
2015-Feb-05 15:31N 53°34' E 008°34'0 0.0
2015-Feb-05 14:31N 53°34' E 008°34'0 0.0
2015-Feb-05 13:31N 53°34' E 008°34'0 0.0
2015-Feb-05 12:31N 53°34' E 008°34'0 0.0
2015-Feb-05 11:31N 53°34' E 008°34'0 0.0
2015-Feb-05 10:31N 53°34' E 008°34'0 0.0
2015-Feb-05 09:31N 53°34' E 008°34'0 0.0
2015-Feb-05 08:31N 53°34' E 008°34'0 0.0
2015-Feb-05 07:31N 53°34' E 008°34'0 0.0
2015-Feb-05 06:31N 53°34' E 008°34'0 0.0
2015-Feb-05 05:31N 53°34' E 008°34'0 0.0
2015-Feb-05 04:31N 53°34' E 008°34'0 0.0
2015-Feb-05 03:31N 53°34' E 008°34'0 0.0
2015-Feb-05 02:31N 53°34' E 008°34'0 0.0
2015-Feb-05 01:31N 53°34' E 008°34'0 0.0
2015-Feb-05 00:31N 53°34' E 008°34'0 0.0
2015-Feb-04 23:31N 53°34' E 008°34'0 0.0
2015-Feb-04 22:31N 53°34' E 008°34'0 0.0
2015-Feb-04 21:31N 53°34' E 008°34'0 0.0
2015-Feb-04 20:31N 53°34' E 008°34'0 0.0
2015-Feb-04 19:28N 53°34' E 008°34'0 0.0
2015-Feb-04 18:31N 53°34' E 008°34'0 0.0
2015-Feb-04 17:31N 53°34' E 008°34'0 0.0
2015-Feb-04 16:31N 53°34' E 008°34'0 0.0
2015-Feb-04 15:31N 53°34' E 008°34'0 0.0
2015-Feb-04 14:31N 53°34' E 008°34'0 0.0
2015-Feb-04 13:31N 53°34' E 008°34'0 0.0
2015-Feb-04 12:31N 53°34' E 008°34'0 0.0
2015-Feb-04 11:31N 53°34' E 008°34'0 0.0
2015-Feb-04 10:31N 53°34' E 008°34'0 0.0
2015-Feb-04 09:28N 53°34' E 008°34'0 0.0
2015-Feb-04 08:31N 53°34' E 008°34'0 0.0
2015-Feb-04 07:31N 53°34' E 008°34'0 0.0
2015-Feb-04 06:28N 53°34' E 008°34'0 0.0
2015-Feb-04 05:31N 53°34' E 008°34'0 0.0
2015-Feb-04 04:31N 53°34' E 008°34'0 0.0
2015-Feb-04 03:31N 53°34' E 008°34'0 0.0
2015-Feb-04 02:31N 53°34' E 008°34'0 0.0
2015-Feb-04 01:31N 53°34' E 008°34'0 0.0
2015-Feb-04 00:31N 53°34' E 008°34'  
Track history (hours):
 
Tides and Currents Weather Stations Pressure Air Temp Water Temp Dewpoint Dewpoint Depression Visibility Wind Speed Wind Dir Waves Ship Positions

Tombarra

Last reported at 2015-Feb-14 00:29 UTC. Time now 2015-Feb-28 12:31 UTC.
Position N 50°25' W 001°19'.
Warning: this ship's position is 14 days out of date.

Length 199 m; draft 10.3 m.

Type: Ship. MMSI: 232971000.

Date/timePositionNaut miles runAvg speedWind from/ knotsBaromVisibWave heightAir tempDewpointWater temp
2015-Feb-14 00:29N 50°25' W 001°19'1313.8
2015-Feb-13 23:33N 50°31' W 001°02'1110.6
2015-Feb-13 22:33N 50°41' W 000°57'1312.7
2015-Feb-13 21:33N 50°46' W 001°15'9 8.9
2015-Feb-13 20:33N 50°53' W 001°24'0 0.4
2015-Feb-13 19:33N 50°53' W 001°24'0 0.0
2015-Feb-13 18:33N 50°53' W 001°24'0 0.0
2015-Feb-13 17:33N 50°53' W 001°24'0 0.0
2015-Feb-13 16:33N 50°53' W 001°24'0 0.0
2015-Feb-13 15:33N 50°53' W 001°24'0 0.0
2015-Feb-13 14:33N 50°53' W 001°24'0 0.0
2015-Feb-13 13:33N 50°53' W 001°24'0 0.0
2015-Feb-13 12:33N 50°53' W 001°24'0 0.0
2015-Feb-13 11:33N 50°53' W 001°24'0 0.0
2015-Feb-13 10:33N 50°53' W 001°24'0 0.0
2015-Feb-13 09:33N 50°53' W 001°24'0 0.0
2015-Feb-13 08:33N 50°53' W 001°24'0 0.0
2015-Feb-13 07:33N 50°53' W 001°24'6 5.5
2015-Feb-13 06:33N 50°49' W 001°18'1212.1
2015-Feb-13 05:34N 50°43' W 001°01'9 8.5
2015-Feb-13 04:33N 50°37' W 000°53'1110.6
2015-Feb-13 03:33N 50°27' W 000°46'4715.5
2015-Feb-13 00:33N 49°45' W 000°15'1515.2
2015-Feb-12 23:33N 49°32' W 000°04'10 9.9
2015-Feb-12 22:33N 49°28' E 000°10'1 0.8
2015-Feb-12 21:33N 49°29' E 000°11'1 0.8
2015-Feb-12 20:31N 49°28' E 000°13'0 0.0
2015-Feb-12 19:31N 49°28' E 000°13'0 0.0
2015-Feb-12 18:31N 49°28' E 000°13'0 0.0
2015-Feb-12 17:31N 49°28' E 000°13'0 0.0
2015-Feb-12 16:32N 49°28' E 000°13'0 0.0
2015-Feb-12 15:31N 49°28' E 000°13'1 1.4
2015-Feb-12 14:33N 49°29' E 000°11'0 0.3
2015-Feb-12 13:33N 49°28' E 000°10'8 7.7
2015-Feb-12 12:33N 49°30' W 000°01'9 8.5
2015-Feb-12 11:33N 49°33' W 000°14'1010.4
2015-Feb-12 10:33N 49°42' W 000°21'4117.0
2015-Feb-12 08:08N 50°23' W 000°24'1219.0
2015-Feb-12 07:29N 50°27' W 000°06'1818.9
2015-Feb-12 06:33N 50°33' E 000°21'1818.2
2015-Feb-12 05:33N 50°42' E 000°46'1817.3
2015-Feb-12 04:32N 50°51' E 001°10'1616.3
2015-Feb-12 03:34N 51°02' E 001°28'1717.4
2015-Feb-12 02:33N 51°14' E 001°47'1514.9
2015-Feb-12 01:34N 51°23' E 002°07'1717.2
2015-Feb-12 00:33N 51°23' E 002°34'1514.7
2015-Feb-11 23:34N 51°23' E 002°58'1010.0
2015-Feb-11 22:33N 51°20' E 003°13'0 0.1
2015-Feb-11 21:32N 51°20' E 003°13'1 1.2
2015-Feb-11 20:31N 51°19' E 003°14'0 0.0
2015-Feb-11 19:31N 51°19' E 003°14'0 0.0
2015-Feb-11 18:31N 51°19' E 003°14'0 0.0
2015-Feb-11 17:28N 51°19' E 003°14'0 0.0
2015-Feb-11 16:31N 51°19' E 003°14'0 0.0
2015-Feb-11 15:31N 51°19' E 003°14'0 0.0
2015-Feb-11 14:31N 51°19' E 003°14'0 0.0
2015-Feb-11 13:31N 51°19' E 003°14'0 0.0
2015-Feb-11 12:31N 51°19' E 003°14'0 0.0
2015-Feb-11 11:31N 51°19' E 003°14'0 0.0
2015-Feb-11 10:31N 51°19' E 003°14'0 0.0
2015-Feb-11 09:31N 51°19' E 003°14'0 0.0
2015-Feb-11 08:31N 51°19' E 003°14'0 0.0
2015-Feb-11 07:31N 51°19' E 003°14'0 0.0
2015-Feb-11 06:31N 51°19' E 003°14'0 0.0
2015-Feb-11 05:31N 51°19' E 003°14'0 0.0
2015-Feb-11 04:28N 51°19' E 003°14'0 0.0
2015-Feb-11 03:28N 51°19' E 003°14'0 0.0
2015-Feb-11 02:25N 51°19' E 003°14'0 0.0
2015-Feb-11 01:31N 51°19' E 003°14'0 0.0
2015-Feb-11 00:31N 51°19' E 003°14'0 0.0
2015-Feb-10 23:31N 51°19' E 003°14'0 0.0
2015-Feb-10 22:32N 51°19' E 003°14'1 1.3
2015-Feb-10 21:31N 51°20' E 003°13'2 2.0
2015-Feb-10 20:33N 51°22' E 003°11'9 9.0
2015-Feb-10 19:33N 51°23' E 002°57'17 8.4
2015-Feb-10 17:33N 51°37' E 002°43'1615.6
2015-Feb-10 16:33N 51°53' E 002°41'1414.5
2015-Feb-10 15:34N 52°05' E 002°53'1615.7
2015-Feb-10 14:33N 52°18' E 003°07'1716.5
2015-Feb-10 13:33N 52°32' E 003°24'1717.0
2015-Feb-10 12:34N 52°45' E 003°41'1817.5
2015-Feb-10 11:33N 52°58' E 004°01'1717.1
2015-Feb-10 10:32N 53°09' E 004°23'1616.3
2015-Feb-10 09:34N 53°24' E 004°34'1616.1
2015-Feb-10 08:34N 53°33' E 004°56'1716.7
2015-Feb-10 07:34N 53°39' E 005°22'1717.3
2015-Feb-10 06:34N 53°44' E 005°50'1817.6
2015-Feb-10 05:33N 53°50' E 006°18'2517.5
2015-Feb-10 04:08N 53°55' E 006°59'1017.5
2015-Feb-10 03:33N 53°57' E 007°17'1514.9
2015-Feb-10 02:31N 53°56' E 007°43'1111.6
2015-Feb-10 01:33N 53°51' E 007°60'1413.7
2015-Feb-10 00:33N 53°43' E 008°18'1211.6
2015-Feb-09 23:33N 53°35' E 008°32'1 0.9
2015-Feb-09 22:33N 53°34' E 008°33'0 0.4
2015-Feb-09 21:32N 53°35' E 008°33'0 0.0
2015-Feb-09 20:32N 53°35' E 008°33'0 0.0
2015-Feb-09 19:32N 53°35' E 008°33'0 0.0
2015-Feb-09 18:32N 53°35' E 008°33'0 0.0
2015-Feb-09 17:32N 53°35' E 008°33'0 0.0
2015-Feb-09 16:32N 53°35' E 008°33'0 0.0
2015-Feb-09 15:32N 53°35' E 008°33'0 0.0
2015-Feb-09 14:32N 53°35' E 008°33'0 0.0
2015-Feb-09 13:32N 53°35' E 008°33'0 0.0
2015-Feb-09 12:32N 53°35' E 008°33'0 0.0
2015-Feb-09 11:32N 53°35' E 008°33'0 0.0
2015-Feb-09 10:32N 53°35' E 008°33'0 0.0
2015-Feb-09 09:32N 53°35' E 008°33'0 0.0
2015-Feb-09 08:32N 53°35' E 008°33'0 0.0
2015-Feb-09 07:32N 53°35' E 008°33'0 0.0
2015-Feb-09 06:32N 53°35' E 008°33'0 0.0
2015-Feb-09 05:32N 53°35' E 008°33'0 0.0
2015-Feb-09 04:32N 53°35' E 008°33'0 0.0
2015-Feb-09 03:32N 53°35' E 008°33'0 0.0
2015-Feb-09 02:29N 53°35' E 008°33'0 0.0
2015-Feb-09 01:32N 53°35' E 008°33'0 0.0
2015-Feb-09 00:32N 53°35' E 008°33'0 0.0
2015-Feb-08 23:32N 53°35' E 008°33'0 0.0
2015-Feb-08 22:32N 53°35' E 008°33'0 0.0
2015-Feb-08 21:34N 53°35' E 008°33'0 0.0
2015-Feb-08 20:33N 53°35' E 008°33'0 0.0
2015-Feb-08 19:33N 53°35' E 008°33'0 0.0
2015-Feb-08 18:34N 53°35' E 008°33'0 0.0
2015-Feb-08 17:33N 53°35' E 008°33'0 0.0
2015-Feb-08 16:33N 53°35' E 008°33'0 0.0
2015-Feb-08 15:33N 53°35' E 008°33'0 0.0
2015-Feb-08 14:33N 53°35' E 008°33'0 0.0
2015-Feb-08 13:33N 53°35' E 008°33'0 0.0
2015-Feb-08 12:33N 53°35' E 008°33'0 0.0
2015-Feb-08 11:33N 53°35' E 008°33'0 0.0
2015-Feb-08 10:33N 53°35' E 008°33'0 0.0
2015-Feb-08 09:33N 53°35' E 008°33'1 0.8
2015-Feb-08 08:31N 53°34' E 008°34'0 0.0
2015-Feb-08 07:31N 53°34' E 008°34'0 0.0
2015-Feb-08 06:31N 53°34' E 008°34'0 0.0
2015-Feb-08 05:31N 53°34' E 008°34'0 0.0
2015-Feb-08 04:31N 53°34' E 008°34'0 0.0
2015-Feb-08 03:31N 53°34' E 008°34'0 0.0
2015-Feb-08 02:31N 53°34' E 008°34'0 0.0
2015-Feb-08 01:31N 53°34' E 008°34'0 0.0
2015-Feb-08 00:31N 53°34' E 008°34'0 0.0
2015-Feb-07 23:31N 53°34' E 008°34'0 0.0
2015-Feb-07 22:31N 53°34' E 008°34'0 0.0
2015-Feb-07 21:31N 53°34' E 008°34'0 0.0
2015-Feb-07 20:31N 53°34' E 008°34'0 0.0
2015-Feb-07 19:28N 53°34' E 008°34'0 0.0
2015-Feb-07 18:31N 53°34' E 008°34'0 0.0
2015-Feb-07 17:31N 53°34' E 008°34'0 0.0
2015-Feb-07 16:31N 53°34' E 008°34'0 0.0
2015-Feb-07 15:31N 53°34' E 008°34'0 0.0
2015-Feb-07 14:31N 53°34' E 008°34'0 0.0
2015-Feb-07 13:28N 53°34' E 008°34'0 0.0
2015-Feb-07 12:31N 53°34' E 008°34'0 0.0
2015-Feb-07 11:28N 53°34' E 008°34'0 0.0
2015-Feb-07 10:28N 53°34' E 008°34'0 0.0
2015-Feb-07 09:28N 53°34' E 008°34'0 0.0
2015-Feb-07 08:31N 53°34' E 008°34'0 0.0
2015-Feb-07 07:31N 53°34' E 008°34'0 0.0
2015-Feb-07 06:31N 53°34' E 008°34'0 0.0
2015-Feb-07 05:31N 53°34' E 008°34'0 0.0
2015-Feb-07 04:31N 53°34' E 008°34'0 0.0
2015-Feb-07 03:31N 53°34' E 008°34'0 0.0
2015-Feb-07 02:32N 53°34' E 008°34'0 0.0
2015-Feb-07 01:31N 53°34' E 008°34'0 0.0
2015-Feb-07 00:31N 53°34' E 008°34'0 0.0
2015-Feb-06 23:31N 53°34' E 008°34'0 0.0
2015-Feb-06 22:31N 53°34' E 008°34'0 0.0
2015-Feb-06 21:31N 53°34' E 008°34'0 0.0
2015-Feb-06 20:31N 53°34' E 008°34'0 0.0
2015-Feb-06 19:31N 53°34' E 008°34'0 0.0
2015-Feb-06 18:31N 53°34' E 008°34'0 0.0
2015-Feb-06 17:31N 53°34' E 008°34'0 0.0
2015-Feb-06 16:31N 53°34' E 008°34'0 0.0
2015-Feb-06 15:31N 53°34' E 008°34'0 0.0
2015-Feb-06 14:31N 53°34' E 008°34'0 0.0
2015-Feb-06 13:31N 53°34' E 008°34'0 0.0
2015-Feb-06 12:31N 53°34' E 008°34'0 0.0
2015-Feb-06 11:31N 53°34' E 008°34'0 0.0
2015-Feb-06 10:31N 53°34' E 008°34'0 0.0
2015-Feb-06 09:31N 53°34' E 008°34'0 0.0
2015-Feb-06 08:31N 53°34' E 008°34'0 0.0
2015-Feb-06 07:31N 53°34' E 008°34'0 0.0
2015-Feb-06 06:31N 53°34' E 008°34'0 0.0
2015-Feb-06 05:31N 53°34' E 008°34'0 0.0
2015-Feb-06 04:31N 53°34' E 008°34'0 0.0
2015-Feb-06 03:31N 53°34' E 008°34'0 0.0
2015-Feb-06 02:31N 53°34' E 008°34'0 0.0
2015-Feb-06 01:31N 53°34' E 008°34'0 0.0
2015-Feb-06 00:31N 53°34' E 008°34'0 0.0
2015-Feb-05 23:31N 53°34' E 008°34'0 0.0
2015-Feb-05 22:31N 53°34' E 008°34'0 0.0
2015-Feb-05 21:31N 53°34' E 008°34'0 0.0
2015-Feb-05 20:31N 53°34' E 008°34'0 0.0
2015-Feb-05 19:31N 53°34' E 008°34'0 0.0
2015-Feb-05 18:31N 53°34' E 008°34'0 0.0
2015-Feb-05 17:31N 53°34' E 008°34'0 0.0
2015-Feb-05 16:31N 53°34' E 008°34'0 0.0
2015-Feb-05 15:31N 53°34' E 008°34'0 0.0
2015-Feb-05 14:31N 53°34' E 008°34'0 0.0
2015-Feb-05 13:31N 53°34' E 008°34'0 0.0
2015-Feb-05 12:31N 53°34' E 008°34'0 0.0
2015-Feb-05 11:31N 53°34' E 008°34'0 0.0
2015-Feb-05 10:31N 53°34' E 008°34'0 0.0
2015-Feb-05 09:31N 53°34' E 008°34'0 0.0
2015-Feb-05 08:31N 53°34' E 008°34'0 0.0
2015-Feb-05 07:31N 53°34' E 008°34'0 0.0
2015-Feb-05 06:31N 53°34' E 008°34'0 0.0
2015-Feb-05 05:31N 53°34' E 008°34'0 0.0
2015-Feb-05 04:31N 53°34' E 008°34'0 0.0
2015-Feb-05 03:31N 53°34' E 008°34'0 0.0
2015-Feb-05 02:31N 53°34' E 008°34'0 0.0
2015-Feb-05 01:31N 53°34' E 008°34'0 0.0
2015-Feb-05 00:31N 53°34' E 008°34'0 0.0
2015-Feb-04 23:31N 53°34' E 008°34'0 0.0
2015-Feb-04 22:31N 53°34' E 008°34'0 0.0
2015-Feb-04 21:31N 53°34' E 008°34'0 0.0
2015-Feb-04 20:31N 53°34' E 008°34'0 0.0
2015-Feb-04 19:28N 53°34' E 008°34'0 0.0
2015-Feb-04 18:31N 53°34' E 008°34'0 0.0
2015-Feb-04 17:31N 53°34' E 008°34'0 0.0
2015-Feb-04 16:31N 53°34' E 008°34'0 0.0
2015-Feb-04 15:31N 53°34' E 008°34'0 0.0
2015-Feb-04 14:31N 53°34' E 008°34'0 0.0
2015-Feb-04 13:31N 53°34' E 008°34'0 0.0
2015-Feb-04 12:31N 53°34' E 008°34'0 0.0
2015-Feb-04 11:31N 53°34' E 008°34'0 0.0
2015-Feb-04 10:31N 53°34' E 008°34'0 0.0
2015-Feb-04 09:28N 53°34' E 008°34'0 0.0
2015-Feb-04 08:31N 53°34' E 008°34'0 0.0
2015-Feb-04 07:31N 53°34' E 008°34'0 0.0
2015-Feb-04 06:28N 53°34' E 008°34'0 0.0
2015-Feb-04 05:31N 53°34' E 008°34'0 0.0
2015-Feb-04 04:31N 53°34' E 008°34'0 0.0
2015-Feb-04 03:31N 53°34' E 008°34'0 0.0
2015-Feb-04 02:31N 53°34' E 008°34'0 0.0
2015-Feb-04 01:31N 53°34' E 008°34'0 0.0
2015-Feb-04 00:31N 53°34' E 008°34'  

Dump ship's entire track history